Smith Valley, Nevada Weather observations

Data are for 10 minute period ending at time listed.
 Day   Time   Solar   Ave.   Ave.  Ave.  Vector  Max.   Baro.   Total    
  of    of     Rad.   Air    Rel.  Wind   Wind   Wind  Press.  Precip.   
Year   Day            Temp.  Hum.  Speed  Dir.   Gust                    
2015   (PST)  Kw/m2    F      %     mph   deg.    mph    mb.     in.     
-------------------------------------------------------------------------
  27    0:50   0.00   39.1    49    1.3   198     3.1   851.2    0.00 
  27    1:00   0.00   39.1    51    1.7   147     2.9   851.2    0.00 
  27    1:10   0.00   40.4    48    0.8   152     1.5   851.1    0.00 
  27    1:20   0.00   39.7    48    1.1   258     3.6   851.1    0.00 
  27    1:30   0.00   39.3    49    1.2     4     3.4   851.1    0.00 
  27    1:40   0.00   38.9    50    1.7    26     3.1   851.2    0.00 
  27    1:50   0.00   38.9    50    1.5   358     2.9   851.1    0.00 
  27    2:00   0.00   39.7    48    0.7   319     1.5   851.1    0.00 
  27    2:10   0.00   39.4    49    2.8    58     5.7   851.2    0.00 
  27    2:20   0.00   38.3    51    2.5    82     4.0   851.3    0.00 
  27    2:30   0.00   38.3    52    0.9   176     2.9   851.2    0.00 
  27    2:40   0.00   38.3    52    2.7   195     3.9   851.2    0.00 
  27    2:50   0.00   38.2    54    2.4   154     4.5   851.3    0.00 
  27    3:00   0.00   38.2    54    1.5   113     4.2   851.2    0.00 
  27    3:10   0.00   38.3    54    0.6   266     2.0   851.1    0.00 
  27    3:20   0.00   38.6    53    2.3   145     3.0   851.1    0.00 
  27    3:30   0.00   38.6    53    2.9   157     3.6   851.1    0.00 
  27    3:40   0.00   38.6    54    3.6   146     5.0   851.1    0.00 
  27    3:50   0.00   39.4    51    1.6   119     2.8   851.0    0.00 
  27    4:00   0.00   40.0    50    2.1   164     3.9   851.0    0.00 
  27    4:10   0.00   39.3    50    2.4   300     6.4   851.1    0.00 
  27    4:20   0.00   38.8    51    0.7   350     2.1   851.0    0.00 
  27    4:30   0.00   38.4    52    1.4    94     2.9   851.0    0.00 
  27    4:40   0.00   38.5    52    1.8    61     3.5   851.1    0.00 
  27    4:50   0.00   39.4    50    2.0   144     6.3   851.2    0.00 
  27    5:00   0.00   39.7    50    2.7   120     5.4   851.3    0.00 
  27    5:10   0.00   40.1    50    4.4   153     7.3   851.4    0.00 
  27    5:20   0.00   40.5    49    4.7   179     8.3   851.4    0.00 
  27    5:30   0.00   41.2    48    3.0   201     4.8   851.6    0.00 
  27    5:40   0.00   42.1    46    1.4   103     3.4   851.7    0.00 
  27    5:50   0.00   42.8    46    2.7   215     6.5   852.0    0.00 
  27    6:00   0.00   45.7    47    4.5   275     9.1   852.1    0.00 
  27    6:10   0.00   46.2    47    6.1   275     9.0   852.3    0.00 
  27    6:20   0.00   47.7    47    8.2   322    17.1   852.4    0.00 
  27    6:30   0.00   42.6    49    4.9   352     8.6   852.5    0.00 
  27    6:40   0.00   40.0    53    3.8   337     5.2   852.8    0.00 
  27    6:50   0.00   41.8    53    5.7   286    12.9   852.9    0.00 
  27    7:00   0.00   45.5    54   10.7   254    15.6   853.1    0.00 
  27    7:10   0.00   44.8    62    9.1   261    13.1   853.3    0.00 
  27    7:20   0.00   44.6    66    7.9   260    11.1   853.5    0.00 
  27    7:30   0.00   44.4    68    7.6   253    10.7   853.6    0.00 
  27    7:40   0.01   43.6    72    7.7   257    11.2   853.7    0.00 
  27    7:50   0.01   43.0    76    5.7   248     7.6   854.0    0.00 
  27    8:00   0.01   42.9    77    5.2   239     8.7   854.1    0.00 
  27    8:10   0.02   42.7    78    5.0   236    10.7   854.2    0.00 
  27    8:20   0.02   42.8    78    5.0   248     7.6   854.2    0.00 
  27    8:30   0.03   43.1    77    5.6   243     8.5   854.2    0.00 
  27    8:40   0.04   43.1    77    4.4   200     7.7   854.3    0.01 
  27    8:50   0.04   43.1    77    4.1   164     5.7   854.4    0.00 
  27    9:00   0.04   43.0    78    4.6   174     6.6   854.4    0.00 
  27    9:10   0.04   43.0    78    4.2   195     7.8   854.5    0.00 
  27    9:20   0.04   43.0    78    4.0   196     7.1   854.5    0.00 
  27    9:30   0.06   43.3    77    3.9   188     7.3   854.5    0.00 
  27    9:40   0.10   44.2    73    6.6   234    12.1   854.5    0.00 
  27    9:50   0.14   44.4    74    7.4   240    13.2   854.5    0.00 
  27   10:00   0.17   44.6    73   10.1   246    15.1   854.7    0.00 
  27   10:10   0.17   44.6    73   10.5   255    15.7   854.8    0.00 
  27   10:20   0.16   44.6    75   10.4   260    14.9   854.8    0.00 
  27   10:30   0.12   44.5    72   12.1   254    16.7   854.9    0.00 
  27   10:40   0.11   44.6    72   10.9   254    18.1   855.1    0.00 
  27   10:50   0.11   44.6    72   11.3   267    16.2   855.2    0.00 
  27   11:00   0.10   44.4    72   12.6   268    15.9   855.2    0.00 
  27   11:10   0.09   43.8    75   12.1   268    16.3   855.2    0.00 
  27   11:20   0.11   43.3    77   10.3   264    14.2   855.3    0.00 
  27   11:30   0.15   43.3    78    9.1   257    12.6   855.4    0.01 
  27   11:40   0.15   43.4    79    9.0   255    12.3   855.4    0.00 
  27   11:50   0.14   43.4    79    8.5   260    14.5   855.3    0.01 
  27   12:00   0.14   43.4    77   10.4   259    15.3   855.1    0.00 
  27   12:10   0.16   43.7    76   10.0   250    15.1   855.1    0.00 
  27   12:20   0.17   43.9    75   10.8   256    15.0   855.0    0.00 
  27   12:30   0.21   44.2    75    9.4   263    13.4   855.0    0.00 
  27   12:40   0.23   44.8    75    8.0   255    13.7   855.0    0.00 
  27   12:50   0.22   45.3    73    8.0   259    12.7   855.0    0.00 
  27   13:00   0.20   45.5    72    6.7   251    10.7   854.9    0.00 
  27   13:10   0.23   45.6    70    9.8   238    15.0   854.8    0.00 
  27   13:20   0.34   46.2    69   10.4   239    17.0   854.7    0.00 
  27   13:30   0.51   47.2    68   10.2   246    17.2   854.7    0.00 
  27   13:40   0.44   48.0    66   11.1   252    16.0   854.6    0.00 
  27   13:50   0.31   47.7    65   10.2   258    16.1   854.6    0.00 
  27   14:00   0.34   48.0    65    9.3   257    12.9   854.6    0.00 
  27   14:10   0.31   48.4    63    8.7   255    15.1   854.6    0.00 
  27   14:20   0.44   48.8    61    8.8   265    15.3   854.7    0.00 
  27   14:30   0.37   49.4    60    8.9   270    14.2   854.7    0.00 
  27   14:40   0.26   49.1    61    8.6   274    15.1   854.7    0.00 
  27   14:50   0.15   48.5    60    8.7   258    17.1   854.8    0.00 
  27   15:00   0.14   48.3    58   10.2   265    17.2   854.8    0.00 
  27   15:10   0.12   48.3    57    9.2   275    15.3   854.9    0.00 
  27   15:20   0.11   48.0    56    6.0   349    11.0   855.0    0.00 
  27   15:30   0.10   47.9    57    4.4     7     6.4   855.2    0.00 
  27   15:40   0.09   47.7    57    4.0     8     6.4   855.3    0.00 
  27   15:50   0.09   47.7    56    2.9    17     5.0   855.3    0.00 
  27   16:00   0.08   47.7    59    2.8    42     5.2   855.3    0.00 
  27   16:10   0.06   47.0    63    2.4    56     4.2   855.3    0.00 
  27   16:20   0.05   47.0    61    0.8   337     2.6   855.3    0.00 
  27   16:30   0.04   46.9    60    1.9   204     3.9   855.3    0.00 
  27   16:40   0.03   46.5    64    2.8   170     3.5   855.3    0.00 
  27   16:50   0.02   46.1    61    3.2   209     6.9   855.4    0.00 
  27   17:00   0.01   45.5    61    4.5   230     8.4   855.3    0.00 
  27   17:10   0.01   45.3    61    3.5   225     5.3   855.3    0.00 
  27   17:20   0.00   45.4    59    2.3   235     5.5   855.4    0.00 
  27   17:30   0.00   45.0    60    6.3   235    10.3   855.5    0.00 
  27   17:40   0.00   43.6    63    2.7   165     5.8   855.6    0.00 
  27   17:50   0.00   43.6    64    3.3   236     5.0   855.7    0.00 
  27   18:00   0.00   43.9    63    1.5   225     3.7   855.7    0.00 
  27   18:10   0.00   43.7    62    2.8   254     5.6   855.9    0.00 
  27   18:20   0.00   44.2    62    6.3   250     9.7   855.9    0.00 
  27   18:30   0.00   44.8    60    5.8   252     9.7   856.1    0.00 
  27   18:40   0.00   45.0    59    6.8   247    12.8   856.1    0.00 
  27   18:50   0.00   44.5    61    5.2   238     7.5   856.3    0.00 
  27   19:00   0.00   44.2    62    3.2   217     8.4   856.4    0.00 
  27   19:10   0.00   43.6    63    2.8   172     4.6   856.5    0.00 
  27   19:20   0.00   42.8    63    3.0   181     5.3   856.5    0.00 
  27   19:30   0.00   41.6    67    1.9   174     5.9   856.6    0.00 
  27   19:40   0.00   41.1    69    4.1   184     6.6   856.6    0.00 
  27   19:50   0.00   40.3    72    5.0   153     9.5   856.5    0.00 
  27   20:00   0.00   40.4    74    5.9   137     8.7   856.5    0.00 
  27   20:10   0.00   41.0    73    6.3   141     9.4   856.6    0.00 
  27   20:20   0.00   41.4    71    2.2   154     5.2   856.6    0.00 
  27   20:30   0.00   41.7    70    2.0   172     6.2   856.8    0.00 
  27   20:40   0.00   41.9    70    4.7   162     8.2   856.8    0.00 
  27   20:50   0.00   41.7    70    1.7   284     3.9   856.9    0.00 
  27   21:00   0.00   42.1    67    0.7   304     1.9   857.0    0.00 
  27   21:10   0.00   42.7    65    2.1   254     3.7   857.1    0.00 
  27   21:20   0.00   43.2    64    1.9   253     4.4   857.1    0.00 
  27   21:30   0.00   43.2    63    1.0    58     3.1   857.1    0.00 
  27   21:40   0.00   43.7    62    1.9    13     3.0   857.1    0.00 
  27   21:50   0.00   44.1    64    2.0   252     4.7   857.1    0.00 
  27   22:00   0.00   43.7    64    0.4   220     1.2   857.1    0.00 
  27   22:10   0.00   42.7    66    0.6   115     1.6   857.1    0.00 
  27   22:20   0.00   41.6    67    3.5    87     5.4   857.1    0.00 
  27   22:30   0.00   40.1    71    3.4   102     4.5   857.1    0.00 
  27   22:40   0.00   39.2    74    2.9   138     4.5   857.1    0.00 
  27   22:50   0.00   38.1    77    3.4   162     4.6   857.1    0.00 
  27   23:00   0.00   37.7    79    1.8   160     2.8   857.1    0.00 
  27   23:10   0.00   37.8    78    0.2   150     0.7   857.2    0.00 
  27   23:20   0.00   38.5    76    2.0   334     5.6   857.2    0.00 
  27   23:30   0.00   38.0    75    2.1    55     3.7   857.2    0.00 
  27   23:40   0.00   39.1    74    2.2   121     5.0   857.2    0.00 
  27   23:50   0.00   39.9    70    3.8   103     5.3   857.2    0.00 
  28    0:00   0.00   38.7    70    2.6   138     4.7   857.3    0.00 
  28    0:10   0.00   36.8    73    2.6   166     5.4   857.3    0.00 
  28    0:20   0.00   37.0    75    4.2   143     7.0   857.3    0.00 
  28    0:30   0.00   38.6    70    4.3   134     8.2   857.3    0.00 
  28    0:40   0.00   36.9    71    1.4   182     3.8   857.3    0.00 

Return to Smith Valley graphs page.


Western Regional Climate Center,wrcc@dri.edu